sensor_id;sensor_type;location;lat;lon;timestamp;pressure;altitude;pressure_sealevel;temperature;humidity
13478;BME280;12598;62.382;17.344;2022-10-16T00:00:58;100325.59;;;22.52;27.23
13478;BME280;12598;62.382;17.344;2022-10-16T00:01:59;100332.00;;;22.51;27.19
13478;BME280;12598;62.382;17.344;2022-10-16T00:03:02;100323.66;;;22.47;27.33
13478;BME280;12598;62.382;17.344;2022-10-16T00:04:04;100321.53;;;22.42;27.09
13478;BME280;12598;62.382;17.344;2022-10-16T00:05:06;100328.88;;;22.48;27.26
13478;BME280;12598;62.382;17.344;2022-10-16T00:06:09;100308.63;;;22.38;26.91
13478;BME280;12598;62.382;17.344;2022-10-16T00:07:11;100329.03;;;22.47;26.87
13478;BME280;12598;62.382;17.344;2022-10-16T00:08:13;100329.41;;;22.44;27.13
13478;BME280;12598;62.382;17.344;2022-10-16T00:09:15;100334.00;;;22.43;27.60
13478;BME280;12598;62.382;17.344;2022-10-16T00:10:16;100312.31;;;22.37;26.94
13478;BME280;12598;62.382;17.344;2022-10-16T00:11:24;100319.88;;;22.41;26.96
13478;BME280;12598;62.382;17.344;2022-10-16T00:12:26;100307.13;;;22.35;27.43
13478;BME280;12598;62.382;17.344;2022-10-16T00:13:28;100319.88;;;22.41;26.96
13478;BME280;12598;62.382;17.344;2022-10-16T00:14:30;100320.41;;;22.37;27.58
13478;BME280;12598;62.382;17.344;2022-10-16T00:15:38;100315.66;;;22.39;27.71
13478;BME280;12598;62.382;17.344;2022-10-16T00:16:41;100317.34;;;22.40;26.80
13478;BME280;12598;62.382;17.344;2022-10-16T00:17:43;100319.38;;;22.38;27.78
13478;BME280;12598;62.382;17.344;2022-10-16T00:18:45;100308.03;;;22.28;27.79
13478;BME280;12598;62.382;17.344;2022-10-16T00:19:47;100326.78;;;22.36;27.70
13478;BME280;12598;62.382;17.344;2022-10-16T00:20:48;100296.22;;;22.14;27.20
13478;BME280;12598;62.382;17.344;2022-10-16T00:21:50;100318.06;;;22.34;26.96
13478;BME280;12598;62.382;17.344;2022-10-16T00:22:52;100327.16;;;22.33;26.93
13478;BME280;12598;62.382;17.344;2022-10-16T00:23:56;100326.50;;;22.31;26.89
13478;BME280;12598;62.382;17.344;2022-10-16T00:24:59;100324.84;;;22.30;27.50
13478;BME280;12598;62.382;17.344;2022-10-16T00:26:04;100312.50;;;22.21;27.56
13478;BME280;12598;62.382;17.344;2022-10-16T00:27:06;100299.47;;;22.10;26.92
13478;BME280;12598;62.382;17.344;2022-10-16T00:28:08;100324.00;;;22.29;26.82
13478;BME280;12598;62.382;17.344;2022-10-16T00:29:10;100330.41;;;22.28;27.27
13478;BME280;12598;62.382;17.344;2022-10-16T00:30:12;100330.59;;;22.27;27.79
13478;BME280;12598;62.382;17.344;2022-10-16T00:31:15;100335.34;;;22.25;27.65
13478;BME280;12598;62.382;17.344;2022-10-16T00:32:21;100327.25;;;22.25;27.74
13478;BME280;12598;62.382;17.344;2022-10-16T00:33:24;100327.44;;;22.23;27.07
13478;BME280;12598;62.382;17.344;2022-10-16T00:34:25;100321.03;;;22.24;27.14
13478;BME280;12598;62.382;17.344;2022-10-16T00:35:27;100313.69;;;22.18;27.20
13478;BME280;12598;62.382;17.344;2022-10-16T00:36:30;100305.81;;;22.17;27.47
13478;BME280;12598;62.382;17.344;2022-10-16T00:37:33;100283.47;;;21.94;27.83
13478;BME280;12598;62.382;17.344;2022-10-16T00:38:35;100314.16;;;22.22;27.58
13478;BME280;12598;62.382;17.344;2022-10-16T00:39:37;100319.53;;;22.22;27.38
13478;BME280;12598;62.382;17.344;2022-10-16T00:40:39;100318.91;;;22.20;27.27
13478;BME280;12598;62.382;17.344;2022-10-16T00:41:41;100323.25;;;22.21;27.20
13478;BME280;12598;62.382;17.344;2022-10-16T00:42:42;100320.75;;;22.19;27.29
13478;BME280;12598;62.382;17.344;2022-10-16T00:43:50;100311.84;;;22.19;27.19
13478;BME280;12598;62.382;17.344;2022-10-16T00:44:56;100313.50;;;22.20;27.63
13478;BME280;12598;62.382;17.344;2022-10-16T00:46:02;100316.19;;;22.20;27.33
13478;BME280;12598;62.382;17.344;2022-10-16T00:47:04;100317.03;;;22.20;27.21
13478;BME280;12598;62.382;17.344;2022-10-16T00:48:11;100319.06;;;22.18;27.11
13478;BME280;12598;62.382;17.344;2022-10-16T00:49:16;100303.75;;;22.19;27.65
13478;BME280;12598;62.382;17.344;2022-10-16T00:50:37;100306.47;;;22.19;27.40
13478;BME280;12598;62.382;17.344;2022-10-16T00:51:50;100320.38;;;22.22;27.65
13478;BME280;12598;62.382;17.344;2022-10-16T00:52:54;100317.03;;;22.20;27.49
13478;BME280;12598;62.382;17.344;2022-10-16T00:53:57;100319.06;;;22.18;27.36
13478;BME280;12598;62.382;17.344;2022-10-16T00:55:00;100307.19;;;22.13;27.10
13478;BME280;12598;62.382;17.344;2022-10-16T00:56:03;100308.22;;;22.12;27.18
13478;BME280;12598;62.382;17.344;2022-10-16T00:57:06;100315.94;;;22.15;27.71
13478;BME280;12598;62.382;17.344;2022-10-16T00:58:09;100311.56;;;22.14;27.40
13478;BME280;12598;62.382;17.344;2022-10-16T00:59:17;100320.66;;;22.13;26.96
13478;BME280;12598;62.382;17.344;2022-10-16T01:00:23;100306.34;;;22.12;26.80
13478;BME280;12598;62.382;17.344;2022-10-16T01:01:25;100292.13;;;22.04;27.38
13478;BME280;12598;62.382;17.344;2022-10-16T01:02:27;100307.38;;;22.11;27.25
13478;BME280;12598;62.382;17.344;2022-10-16T01:03:35;100278.75;;;21.96;27.16
13478;BME280;12598;62.382;17.344;2022-10-16T01:04:49;100303.16;;;22.09;26.82
13478;BME280;12598;62.382;17.344;2022-10-16T01:06:21;100303.66;;;22.12;26.71
13478;BME280;12598;62.382;17.344;2022-10-16T01:08:49;100296.59;;;22.11;27.26
13478;BME280;12598;62.382;17.344;2022-10-16T01:11:19;100279.97;;;22.08;27.18
13478;BME280;12598;62.382;17.344;2022-10-16T01:13:53;100281.09;;;22.13;26.88
13478;BME280;12598;62.382;17.344;2022-10-16T01:15:02;100278.94;;;22.09;27.22
13478;BME280;12598;62.382;17.344;2022-10-16T01:16:21;100288.69;;;22.10;27.10
13478;BME280;12598;62.382;17.344;2022-10-16T01:17:32;100276.25;;;22.09;27.49
13478;BME280;12598;62.382;17.344;2022-10-16T01:18:42;100262.88;;;22.01;27.24
13478;BME280;12598;62.382;17.344;2022-10-16T01:20:21;100269.38;;;22.06;27.56
13478;BME280;12598;62.382;17.344;2022-10-16T01:21:22;100279.97;;;22.08;27.36
13478;BME280;12598;62.382;17.344;2022-10-16T01:22:31;100271.22;;;22.06;27.60
13478;BME280;12598;62.382;17.344;2022-10-16T01:25:14;100263.81;;;22.08;27.04
13478;BME280;12598;62.382;17.344;2022-10-16T01:26:44;100269.19;;;22.08;27.33
13478;BME280;12598;62.382;17.344;2022-10-16T01:27:48;100269.19;;;22.08;27.17
13478;BME280;12598;62.382;17.344;2022-10-16T01:28:58;100260.84;;;22.03;26.97
13478;BME280;12598;62.382;17.344;2022-10-16T01:30:10;100258.34;;;22.01;27.15
13478;BME280;12598;62.382;17.344;2022-10-16T01:31:18;100266.59;;;22.00;27.64
13478;BME280;12598;62.382;17.344;2022-10-16T01:33:41;100238.47;;;21.88;27.29
13478;BME280;12598;62.382;17.344;2022-10-16T01:34:57;100250.81;;;21.97;27.41
13478;BME280;12598;62.382;17.344;2022-10-16T01:36:07;100236.59;;;21.88;27.42
13478;BME280;12598;62.382;17.344;2022-10-16T01:37:14;100231.69;;;21.92;27.47
13478;BME280;12598;62.382;17.344;2022-10-16T01:38:21;100233.34;;;21.93;26.97
13478;BME280;12598;62.382;17.344;2022-10-16T01:39:29;100223.34;;;21.87;27.43
13478;BME280;12598;62.382;17.344;2022-10-16T01:40:36;100212.94;;;21.84;27.49
13478;BME280;12598;62.382;17.344;2022-10-16T01:41:43;100221.13;;;21.90;27.05
13478;BME280;12598;62.382;17.344;2022-10-16T01:42:49;100214.88;;;21.90;26.85
13478;BME280;12598;62.382;17.344;2022-10-16T01:44:07;100198.47;;;21.85;27.53
13478;BME280;12598;62.382;17.344;2022-10-16T01:45:13;100203.94;;;21.91;27.01
13478;BME280;12598;62.382;17.344;2022-10-16T01:46:18;100202.44;;;21.89;27.71
13478;BME280;12598;62.382;17.344;2022-10-16T01:47:23;100189.09;;;21.81;27.16
13478;BME280;12598;62.382;17.344;2022-10-16T01:48:28;100201.81;;;21.87;27.24
13478;BME280;12598;62.382;17.344;2022-10-16T01:49:34;100207.34;;;21.85;27.45
13478;BME280;12598;62.382;17.344;2022-10-16T01:50:38;100207.56;;;21.84;27.81
13478;BME280;12598;62.382;17.344;2022-10-16T01:51:44;100199.47;;;21.84;27.51
13478;BME280;12598;62.382;17.344;2022-10-16T01:52:49;100192.44;;;21.83;27.21
13478;BME280;12598;62.382;17.344;2022-10-16T01:53:55;100162.53;;;21.63;27.58
13478;BME280;12598;62.382;17.344;2022-10-16T01:55:00;100191.59;;;21.82;27.69
13478;BME280;12598;62.382;17.344;2022-10-16T01:56:08;100189.75;;;21.83;27.20
13478;BME280;12598;62.382;17.344;2022-10-16T01:57:12;100179.34;;;21.80;27.23
13478;BME280;12598;62.382;17.344;2022-10-16T01:58:14;100177.31;;;21.82;27.81
13478;BME280;12598;62.382;17.344;2022-10-16T01:59:19;100182.03;;;21.80;27.78
13478;BME280;12598;62.382;17.344;2022-10-16T02:00:22;100179.34;;;21.80;27.00
13478;BME280;12598;62.382;17.344;2022-10-16T02:01:26;100183.06;;;21.79;27.17
13478;BME280;12598;62.382;17.344;2022-10-16T02:02:30;100179.34;;;21.80;27.57
13478;BME280;12598;62.382;17.344;2022-10-16T02:03:34;100170.63;;;21.78;27.60
13478;BME280;12598;62.382;17.344;2022-10-16T02:04:45;100161.69;;;21.77;27.56
13478;BME280;12598;62.382;17.344;2022-10-16T02:05:51;100152.97;;;21.75;27.74
13478;BME280;12598;62.382;17.344;2022-10-16T02:07:00;100155.13;;;21.80;27.88
13478;BME280;12598;62.382;17.344;2022-10-16T02:08:02;100150.13;;;21.77;27.67
13478;BME280;12598;62.382;17.344;2022-10-16T02:09:06;100142.41;;;21.74;27.40
13478;BME280;12598;62.382;17.344;2022-10-16T02:10:09;100150.13;;;21.77;27.28
13478;BME280;12598;62.382;17.344;2022-10-16T02:11:11;100147.59;;;21.75;27.78
13478;BME280;12598;62.382;17.344;2022-10-16T02:12:31;100157.81;;;21.80;27.38
13478;BME280;12598;62.382;17.344;2022-10-16T02:13:38;100152.59;;;21.78;27.20
13478;BME280;12598;62.382;17.344;2022-10-16T02:14:41;100144.25;;;21.73;27.23
13478;BME280;12598;62.382;17.344;2022-10-16T02:15:42;100154.84;;;21.75;27.76
13478;BME280;12598;62.382;17.344;2022-10-16T02:16:46;100154.00;;;21.74;27.50
13478;BME280;12598;62.382;17.344;2022-10-16T02:17:48;100149.00;;;21.71;27.91
13478;BME280;12598;62.382;17.344;2022-10-16T02:18:49;100151.50;;;21.73;27.22
13478;BME280;12598;62.382;17.344;2022-10-16T02:19:54;100155.22;;;21.72;27.27
13478;BME280;12598;62.382;17.344;2022-10-16T02:22:06;100158.94;;;21.71;27.83
13478;BME280;12598;62.382;17.344;2022-10-16T02:23:12;100164.13;;;21.72;27.30
13478;BME280;12598;62.382;17.344;2022-10-16T02:25:38;100155.66;;;21.75;28.07
13478;BME280;12598;62.382;17.344;2022-10-16T02:26:49;100151.13;;;21.76;27.54
13478;BME280;12598;62.382;17.344;2022-10-16T02:28:19;100142.78;;;21.71;27.68
13478;BME280;12598;62.382;17.344;2022-10-16T02:29:25;100148.06;;;21.79;27.67
13478;BME280;12598;62.382;17.344;2022-10-16T02:31:46;100143.06;;;21.76;27.24
13478;BME280;12598;62.382;17.344;2022-10-16T02:32:50;100142.78;;;21.71;27.74
13478;BME280;12598;62.382;17.344;2022-10-16T02:33:55;100137.41;;;21.71;27.60
13478;BME280;12598;62.382;17.344;2022-10-16T02:34:59;100137.41;;;21.71;27.71
13478;BME280;12598;62.382;17.344;2022-10-16T02:36:02;100134.41;;;21.66;27.71
13478;BME280;12598;62.382;17.344;2022-10-16T02:37:05;100128.69;;;21.69;27.93
13478;BME280;12598;62.382;17.344;2022-10-16T02:38:08;100124.66;;;21.65;27.72
13478;BME280;12598;62.382;17.344;2022-10-16T02:39:16;100125.31;;;21.67;27.83
13478;BME280;12598;62.382;17.344;2022-10-16T02:40:20;100121.59;;;21.68;27.74
13478;BME280;12598;62.382;17.344;2022-10-16T02:41:26;100107.88;;;21.63;27.68
13478;BME280;12598;62.382;17.344;2022-10-16T02:42:38;100114.56;;;21.67;27.80
13478;BME280;12598;62.382;17.344;2022-10-16T02:43:41;100117.94;;;21.69;27.38
13478;BME280;12598;62.382;17.344;2022-10-16T02:44:42;100102.31;;;21.64;27.47
13478;BME280;12598;62.382;17.344;2022-10-16T02:45:44;100100.16;;;21.60;27.86
13478;BME280;12598;62.382;17.344;2022-10-16T02:46:46;100092.66;;;21.55;27.56
13478;BME280;12598;62.382;17.344;2022-10-16T02:47:48;100110.56;;;21.63;27.29
13478;BME280;12598;62.382;17.344;2022-10-16T02:48:50;100097.19;;;21.55;27.81
13478;BME280;12598;62.382;17.344;2022-10-16T02:49:52;100107.22;;;21.61;28.11
13478;BME280;12598;62.382;17.344;2022-10-16T02:50:54;100120.69;;;21.61;27.65
13478;BME280;12598;62.382;17.344;2022-10-16T02:51:55;100117.16;;;21.60;27.58
13478;BME280;12598;62.382;17.344;2022-10-16T02:52:57;100105.25;;;21.55;27.72
13478;BME280;12598;62.382;17.344;2022-10-16T02:53:59;100095.53;;;21.54;27.83
13478;BME280;12598;62.382;17.344;2022-10-16T02:55:00;100102.84;;;21.60;27.40
13478;BME280;12598;62.382;17.344;2022-10-16T02:56:02;100095.34;;;21.55;27.77
13478;BME280;12598;62.382;17.344;2022-10-16T02:57:04;100097.19;;;21.55;27.64
13478;BME280;12598;62.382;17.344;2022-10-16T02:58:06;100086.06;;;21.58;27.80
13478;BME280;12598;62.382;17.344;2022-10-16T02:59:08;100092.06;;;21.60;28.12
13478;BME280;12598;62.382;17.344;2022-10-16T03:00:13;100084.84;;;21.60;28.12
13478;BME280;12598;62.382;17.344;2022-10-16T03:01:16;100084.69;;;21.62;28.15
13478;BME280;12598;62.382;17.344;2022-10-16T03:02:18;100082.53;;;21.57;27.62
13478;BME280;12598;62.382;17.344;2022-10-16T03:03:20;100086.06;;;21.58;27.50
13478;BME280;12598;62.382;17.344;2022-10-16T03:04:22;100085.41;;;21.56;27.60
13478;BME280;12598;62.382;17.344;2022-10-16T03:05:23;100080.41;;;21.53;27.98
13478;BME280;12598;62.382;17.344;2022-10-16T03:06:25;100091.25;;;21.59;27.55
13478;BME280;12598;62.382;17.344;2022-10-16T03:07:27;100077.97;;;21.58;27.75
13478;BME280;12598;62.382;17.344;2022-10-16T03:08:29;100086.91;;;21.58;27.34
13478;BME280;12598;62.382;17.344;2022-10-16T03:09:31;100079.84;;;21.57;27.86
13478;BME280;12598;62.382;17.344;2022-10-16T03:10:33;100087.91;;;21.57;28.16
13478;BME280;12598;62.382;17.344;2022-10-16T03:11:34;100084.38;;;21.57;27.81
13478;BME280;12598;62.382;17.344;2022-10-16T03:12:36;100083.56;;;21.56;27.83
13478;BME280;12598;62.382;17.344;2022-10-16T03:13:38;100075.03;;;21.53;27.64
13478;BME280;12598;62.382;17.344;2022-10-16T03:14:40;100062.97;;;21.49;27.56
13478;BME280;12598;62.382;17.344;2022-10-16T03:15:42;100064.72;;;21.56;28.01
13478;BME280;12598;62.382;17.344;2022-10-16T03:16:43;100063.06;;;21.55;28.19
13478;BME280;12598;62.382;17.344;2022-10-16T03:17:45;100062.84;;;21.57;28.13
13478;BME280;12598;62.382;17.344;2022-10-16T03:18:49;100054.16;;;21.55;28.20
13478;BME280;12598;62.382;17.344;2022-10-16T03:19:51;100048.75;;;21.55;28.14
13478;BME280;12598;62.382;17.344;2022-10-16T03:20:53;100041.06;;;21.52;27.98
13478;BME280;12598;62.382;17.344;2022-10-16T03:21:55;100030.69;;;21.49;27.66
13478;BME280;12598;62.382;17.344;2022-10-16T03:22:57;100040.69;;;21.55;27.87
13478;BME280;12598;62.382;17.344;2022-10-16T03:23:58;100028.25;;;21.54;28.02
13478;BME280;12598;62.382;17.344;2022-10-16T03:25:00;100028.63;;;21.51;27.67
13478;BME280;12598;62.382;17.344;2022-10-16T03:26:02;100038.00;;;21.55;27.80
13478;BME280;12598;62.382;17.344;2022-10-16T03:27:04;100026.59;;;21.53;27.54
13478;BME280;12598;62.382;17.344;2022-10-16T03:28:05;100025.56;;;21.54;27.48
13478;BME280;12598;62.382;17.344;2022-10-16T03:29:07;100027.44;;;21.53;27.61
13478;BME280;12598;62.382;17.344;2022-10-16T03:30:09;100026.59;;;21.53;27.69
13478;BME280;12598;62.382;17.344;2022-10-16T03:31:11;100018.53;;;21.53;27.58
13478;BME280;12598;62.382;17.344;2022-10-16T03:32:13;100010.84;;;21.50;27.88
13478;BME280;12598;62.382;17.344;2022-10-16T03:33:15;100023.72;;;21.54;28.08
13478;BME280;12598;62.382;17.344;2022-10-16T03:34:17;100017.50;;;21.54;27.56
13478;BME280;12598;62.382;17.344;2022-10-16T03:35:22;100013.34;;;21.51;28.09
13478;BME280;12598;62.382;17.344;2022-10-16T03:36:24;100006.31;;;21.50;28.37
13478;BME280;12598;62.382;17.344;2022-10-16T03:37:26;99986.53;;;21.43;27.90
13478;BME280;12598;62.382;17.344;2022-10-16T03:38:29;99995.16;;;21.53;28.52
13478;BME280;12598;62.382;17.344;2022-10-16T03:39:31;99969.84;;;21.48;27.63
13478;BME280;12598;62.382;17.344;2022-10-16T03:40:32;99980.88;;;21.53;28.14
13478;BME280;12598;62.382;17.344;2022-10-16T03:41:34;99971.13;;;21.52;27.66
13478;BME280;12598;62.382;17.344;2022-10-16T03:42:36;99955.75;;;21.46;28.36
13478;BME280;12598;62.382;17.344;2022-10-16T03:43:38;99970.09;;;21.53;28.32
13478;BME280;12598;62.382;17.344;2022-10-16T03:44:39;99960.38;;;21.52;28.50
13478;BME280;12598;62.382;17.344;2022-10-16T03:45:41;99953.06;;;21.46;27.82
13478;BME280;12598;62.382;17.344;2022-10-16T03:46:43;99959.56;;;21.51;28.31
13478;BME280;12598;62.382;17.344;2022-10-16T03:47:44;99949.72;;;21.44;27.98
13478;BME280;12598;62.382;17.344;2022-10-16T03:48:46;99959.56;;;21.51;28.30
13478;BME280;12598;62.382;17.344;2022-10-16T03:49:48;99954.34;;;21.50;28.21
13478;BME280;12598;62.382;17.344;2022-10-16T03:50:50;99954.16;;;21.51;28.61
13478;BME280;12598;62.382;17.344;2022-10-16T03:51:53;99951.47;;;21.51;27.88
13478;BME280;12598;62.382;17.344;2022-10-16T03:52:54;99951.28;;;21.53;28.25
13478;BME280;12598;62.382;17.344;2022-10-16T03:53:56;99950.63;;;21.51;28.19
13478;BME280;12598;62.382;17.344;2022-10-16T03:54:58;99950.00;;;21.49;28.33
13478;BME280;12598;62.382;17.344;2022-10-16T03:56:00;99959.56;;;21.51;28.66
13478;BME280;12598;62.382;17.344;2022-10-16T03:57:02;99962.25;;;21.51;28.44
13478;BME280;12598;62.382;17.344;2022-10-16T03:58:04;99953.31;;;21.51;28.06
13478;BME280;12598;62.382;17.344;2022-10-16T03:59:05;99942.94;;;21.48;28.58
13478;BME280;12598;62.382;17.344;2022-10-16T04:00:07;99946.09;;;21.51;28.29
13478;BME280;12598;62.382;17.344;2022-10-16T04:01:13;99930.69;;;21.45;28.67
13478;BME280;12598;62.382;17.344;2022-10-16T04:02:14;99939.69;;;21.52;28.84
13478;BME280;12598;62.382;17.344;2022-10-16T04:03:16;99929.75;;;21.53;28.48
13478;BME280;12598;62.382;17.344;2022-10-16T04:04:20;99928.09;;;21.52;28.07
13478;BME280;12598;62.382;17.344;2022-10-16T04:05:22;99934.31;;;21.52;28.99
13478;BME280;12598;62.382;17.344;2022-10-16T04:06:23;99925.41;;;21.52;28.18
13478;BME280;12598;62.382;17.344;2022-10-16T04:07:25;99916.44;;;21.45;28.44
13478;BME280;12598;62.382;17.344;2022-10-16T04:08:27;99917.34;;;21.52;28.81
13478;BME280;12598;62.382;17.344;2022-10-16T04:09:29;99920.03;;;21.52;28.46
13478;BME280;12598;62.382;17.344;2022-10-16T04:10:31;99914.63;;;21.52;28.77
13478;BME280;12598;62.382;17.344;2022-10-16T04:11:33;99911.94;;;21.52;28.68
13478;BME280;12598;62.382;17.344;2022-10-16T04:12:35;99884.53;;;21.42;28.52
13478;BME280;12598;62.382;17.344;2022-10-16T04:13:37;99904.91;;;21.51;28.20
13478;BME280;12598;62.382;17.344;2022-10-16T04:14:38;99902.03;;;21.52;28.17
13478;BME280;12598;62.382;17.344;2022-10-16T04:15:40;99895.38;;;21.48;28.64
13478;BME280;12598;62.382;17.344;2022-10-16T04:16:42;99896.66;;;21.52;28.61
13478;BME280;12598;62.382;17.344;2022-10-16T04:17:44;99896.66;;;21.52;28.69
13478;BME280;12598;62.382;17.344;2022-10-16T04:18:46;99885.44;;;21.49;28.89
13478;BME280;12598;62.382;17.344;2022-10-16T04:19:47;99888.75;;;21.51;28.48
13478;BME280;12598;62.382;17.344;2022-10-16T04:20:49;99867.16;;;21.44;28.58
13478;BME280;12598;62.382;17.344;2022-10-16T04:21:51;99888.59;;;21.52;28.53
13478;BME280;12598;62.382;17.344;2022-10-16T04:22:52;99878.38;;;21.48;28.53
13478;BME280;12598;62.382;17.344;2022-10-16T04:23:54;99873.19;;;21.46;28.49
13478;BME280;12598;62.382;17.344;2022-10-16T04:24:56;99884.22;;;21.51;28.79
13478;BME280;12598;62.382;17.344;2022-10-16T04:25:58;99872.44;;;21.52;28.69
13478;BME280;12598;62.382;17.344;2022-10-16T04:27:00;99872.44;;;21.52;28.77
13478;BME280;12598;62.382;17.344;2022-10-16T04:28:02;99866.59;;;21.49;28.74
13478;BME280;12598;62.382;17.344;2022-10-16T04:29:04;99866.44;;;21.50;28.96
13478;BME280;12598;62.382;17.344;2022-10-16T04:30:06;99863.53;;;21.52;28.88
13478;BME280;12598;62.382;17.344;2022-10-16T04:31:08;99867.06;;;21.52;29.05
13478;BME280;12598;62.382;17.344;2022-10-16T04:32:10;99868.91;;;21.52;28.41
13478;BME280;12598;62.382;17.344;2022-10-16T04:33:12;99886.72;;;21.53;29.15
13478;BME280;12598;62.382;17.344;2022-10-16T04:34:14;99881.34;;;21.53;29.00
13478;BME280;12598;62.382;17.344;2022-10-16T04:35:20;99872.63;;;21.51;28.56
13478;BME280;12598;62.382;17.344;2022-10-16T04:36:22;99873.28;;;21.53;28.71
13478;BME280;12598;62.382;17.344;2022-10-16T04:37:29;99865.19;;;21.53;29.00
13478;BME280;12598;62.382;17.344;2022-10-16T04:38:31;99861.47;;;21.54;29.29
13478;BME280;12598;62.382;17.344;2022-10-16T04:39:33;99865.03;;;21.54;29.03
13478;BME280;12598;62.382;17.344;2022-10-16T04:40:35;99860.66;;;21.53;28.56
13478;BME280;12598;62.382;17.344;2022-10-16T04:41:39;99860.47;;;21.55;29.32
13478;BME280;12598;62.382;17.344;2022-10-16T04:42:41;99846.13;;;21.48;28.81
13478;BME280;12598;62.382;17.344;2022-10-16T04:43:42;99853.41;;;21.54;29.17
13478;BME280;12598;62.382;17.344;2022-10-16T04:44:44;99846.13;;;21.48;29.02
13478;BME280;12598;62.382;17.344;2022-10-16T04:45:46;99865.19;;;21.53;29.40
13478;BME280;12598;62.382;17.344;2022-10-16T04:46:50;99860.19;;;21.50;29.23
13478;BME280;12598;62.382;17.344;2022-10-16T04:47:52;99870.56;;;21.53;29.21
13478;BME280;12598;62.382;17.344;2022-10-16T04:48:53;99862.25;;;21.48;28.92
13478;BME280;12598;62.382;17.344;2022-10-16T04:49:55;99864.38;;;21.52;29.52
13478;BME280;12598;62.382;17.344;2022-10-16T04:50:59;99847.59;;;21.50;29.11
13478;BME280;12598;62.382;17.344;2022-10-16T04:52:00;99852.59;;;21.53;28.93
13478;BME280;12598;62.382;17.344;2022-10-16T04:53:02;99851.09;;;21.51;29.34
13478;BME280;12598;62.382;17.344;2022-10-16T04:54:04;99861.88;;;21.51;29.04
13478;BME280;12598;62.382;17.344;2022-10-16T04:55:06;99869.75;;;21.52;29.51
13478;BME280;12598;62.382;17.344;2022-10-16T04:56:08;99859.38;;;21.49;29.00
13478;BME280;12598;62.382;17.344;2022-10-16T04:57:10;99854.44;;;21.53;28.79
13478;BME280;12598;62.382;17.344;2022-10-16T04:58:12;99849.91;;;21.53;29.51
13478;BME280;12598;62.382;17.344;2022-10-16T04:59:14;99841.84;;;21.53;29.22
13478;BME280;12598;62.382;17.344;2022-10-16T05:00:16;99824.97;;;21.45;29.59
13478;BME280;12598;62.382;17.344;2022-10-16T05:01:18;99827.94;;;21.50;29.51
13478;BME280;12598;62.382;17.344;2022-10-16T05:02:20;99823.00;;;21.53;29.43
13478;BME280;12598;62.382;17.344;2022-10-16T05:03:22;99827.53;;;21.53;29.70
13478;BME280;12598;62.382;17.344;2022-10-16T05:04:23;99821.91;;;21.48;29.50
13478;BME280;12598;62.382;17.344;2022-10-16T05:05:25;99815.50;;;21.49;29.78
13478;BME280;12598;62.382;17.344;2022-10-16T05:06:27;99821.13;;;21.54;29.00
13478;BME280;12598;62.382;17.344;2022-10-16T05:07:29;99817.63;;;21.53;29.13
13478;BME280;12598;62.382;17.344;2022-10-16T05:08:30;99809.56;;;21.53;29.29
13478;BME280;12598;62.382;17.344;2022-10-16T05:09:32;99813.06;;;21.54;29.20
13478;BME280;12598;62.382;17.344;2022-10-16T05:10:34;99818.44;;;21.54;29.52
13478;BME280;12598;62.382;17.344;2022-10-16T05:11:36;99813.06;;;21.54;29.12
13478;BME280;12598;62.382;17.344;2022-10-16T05:12:37;99820.09;;;21.55;29.16
13478;BME280;12598;62.382;17.344;2022-10-16T05:13:39;99809.75;;;21.52;29.64
13478;BME280;12598;62.382;17.344;2022-10-16T05:14:41;99811.78;;;21.50;29.57
13478;BME280;12598;62.382;17.344;2022-10-16T05:15:47;99822.16;;;21.53;29.15
13478;BME280;12598;62.382;17.344;2022-10-16T05:16:49;99799.19;;;21.50;29.40
13478;BME280;12598;62.382;17.344;2022-10-16T05:17:53;99803.94;;;21.48;29.64
13478;BME280;12598;62.382;17.344;2022-10-16T05:18:55;99820.09;;;21.55;29.86
13478;BME280;12598;62.382;17.344;2022-10-16T05:20:17;99812.97;;;21.62;29.83
13478;BME280;12598;62.382;17.344;2022-10-16T05:21:19;99807.03;;;21.52;29.34
13478;BME280;12598;62.382;17.344;2022-10-16T05:22:21;99804.34;;;21.52;29.58
13478;BME280;12598;62.382;17.344;2022-10-16T05:23:23;99806.03;;;21.53;29.90
13478;BME280;12598;62.382;17.344;2022-10-16T05:24:25;99812.44;;;21.52;29.53
13478;BME280;12598;62.382;17.344;2022-10-16T05:25:26;99805.63;;;21.56;29.15
13478;BME280;12598;62.382;17.344;2022-10-16T05:26:28;99807.69;;;21.54;29.42
13478;BME280;12598;62.382;17.344;2022-10-16T05:27:30;99796.28;;;21.52;29.60
13478;BME280;12598;62.382;17.344;2022-10-16T05:28:32;99789.00;;;21.46;29.62
13478;BME280;12598;62.382;17.344;2022-10-16T05:29:33;99792.31;;;21.48;29.46
13478;BME280;12598;62.382;17.344;2022-10-16T05:30:37;99797.78;;;21.54;29.38
13478;BME280;12598;62.382;17.344;2022-10-16T05:31:39;99798.59;;;21.55;29.23
13478;BME280;12598;62.382;17.344;2022-10-16T05:32:40;99797.13;;;21.52;29.84
13478;BME280;12598;62.382;17.344;2022-10-16T05:33:42;99788.59;;;21.49;29.44
13478;BME280;12598;62.382;17.344;2022-10-16T05:34:45;99798.59;;;21.55;29.83
13478;BME280;12598;62.382;17.344;2022-10-16T05:35:47;99802.69;;;21.51;29.59
13478;BME280;12598;62.382;17.344;2022-10-16T05:36:49;99795.47;;;21.51;29.55
13478;BME280;12598;62.382;17.344;2022-10-16T05:37:52;99807.69;;;21.54;29.94
13478;BME280;12598;62.382;17.344;2022-10-16T05:38:54;99785.28;;;21.47;29.67
13478;BME280;12598;62.382;17.344;2022-10-16T05:39:55;99805.00;;;21.54;30.02
13478;BME280;12598;62.382;17.344;2022-10-16T05:40:57;99794.44;;;21.52;29.76
13478;BME280;12598;62.382;17.344;2022-10-16T05:41:59;99803.16;;;21.54;29.71